Time;durP1;ratioP1;P1;durP2;ratioP2;P2;SDS_P1;SDS_P2;PMS_P1;PMS_P2;Temp;Humidity;BMP_temperature;BMP_pressure;BME280_temperature;BME280_humidity;BME280_pressure;Samples;Min_cycle;Max_cycle;Signal;HPM_P1;HPM_P2
2023/06/30 00:01:48;;;;;;;;;;;19.20;86.00;;;;;;5067622;28;19919;-82
2023/06/30 00:04:18;;;;;;;;;;;19.10;86.30;;;;;;5067781;28;19909;-82
2023/06/30 00:06:49;;;;;;;;;;;19.10;86.80;;;;;;5067649;28;19912;-84
2023/06/30 00:09:18;;;;;;;;;;;19.10;87.00;;;;;;5067704;28;19978;-82
2023/06/30 00:11:43;;;;;;;;;;;19.10;86.70;;;;;;5068236;28;19963;-82
2023/06/30 00:14:09;;;;;;;;;;;19.20;86.60;;;;;;5067591;28;19926;-84
2023/06/30 00:16:34;;;;;;;;;;;19.00;87.20;;;;;;5067517;28;20265;-81
2023/06/30 00:19:02;;;;;;;;;;;19.20;86.80;;;;;;5067567;28;20046;-86
2023/06/30 00:21:28;;;;;;;;;;;19.10;87.40;;;;;;5067562;28;19920;-83
2023/06/30 00:24:01;;;;;;;;;;;19.10;87.30;;;;;;5067548;28;20270;-84
2023/06/30 00:26:28;;;;;;;;;;;19.10;87.50;;;;;;5070100;28;20001;-84
2023/06/30 00:28:54;;;;;;;;;;;19.10;87.60;;;;;;5070981;28;20014;-83
2023/06/30 00:31:20;;;;;;;;;;;19.10;87.90;;;;;;5071621;28;20002;-84
2023/06/30 00:33:45;;;;;;;;;;;19.10;87.80;;;;;;5071278;28;20019;-84
2023/06/30 00:36:11;;;;;;;;;;;18.90;88.80;;;;;;5052921;28;20347;-84
2023/06/30 00:38:37;;;;;;;;;;;18.90;89.00;;;;;;5071019;28;19962;-83
2023/06/30 00:41:02;;;;;;;;;;;19.00;88.80;;;;;;5071350;28;19915;-85
2023/06/30 00:43:28;;;;;;;;;;;18.90;88.80;;;;;;5053065;28;19913;-84
2023/06/30 00:45:54;;;;;;;;;;;18.70;89.50;;;;;;5071178;28;19935;-81
2023/06/30 00:48:19;;;;;;;;;;;18.80;89.80;;;;;;5070932;28;19935;-83
2023/06/30 00:50:45;;;;;;;;;;;18.70;89.90;;;;;;5070858;28;20007;-83
2023/06/30 00:53:11;;;;;;;;;;;18.80;90.00;;;;;;5070618;28;20359;-81
2023/06/30 00:55:37;;;;;;;;;;;18.60;90.40;;;;;;5070852;28;19912;-83
2023/06/30 00:58:03;;;;;;;;;;;18.50;90.60;;;;;;5070582;28;20330;-84
2023/06/30 01:00:28;;;;;;;;;;;18.40;91.10;;;;;;5070836;28;19927;-83
2023/06/30 01:03:03;;;;;;;;;;;18.50;91.20;;;;;;5070690;28;19912;-82
2023/06/30 01:05:34;;;;;;;;;;;18.40;91.30;;;;;;5052333;28;19941;-82
2023/06/30 01:08:09;;;;;;;;;;;18.50;91.30;;;;;;5070475;28;20363;-82
2023/06/30 01:10:34;;;;;;;;;;;18.60;91.20;;;;;;5070428;28;19913;-81
2023/06/30 01:13:01;;;;;;;;;;;18.70;91.00;;;;;;5070308;28;19916;-81
2023/06/30 01:15:27;;;;;;;;;;;18.70;91.00;;;;;;5069972;28;19958;-81
2023/06/30 01:17:56;;;;;;;;;;;18.80;90.80;;;;;;5070363;28;19917;-81
2023/06/30 01:20:22;;;;;;;;;;;18.80;90.90;;;;;;5069987;28;19920;-81
2023/06/30 01:22:48;;;;;;;;;;;18.70;91.10;;;;;;5070102;28;19912;-82
2023/06/30 01:25:20;;;;;;;;;;;18.60;91.30;;;;;;5051891;28;20257;-83
2023/06/30 01:27:46;;;;;;;;;;;18.60;91.50;;;;;;5070330;28;20436;-81
2023/06/30 01:30:11;;;;;;;;;;;18.60;91.50;;;;;;5069547;28;19916;-81
2023/06/30 01:32:37;;;;;;;;;;;18.60;91.60;;;;;;5069852;28;19920;-81
2023/06/30 01:35:03;;;;;;;;;;;18.60;91.60;;;;;;5069528;28;19966;-82
2023/06/30 01:37:29;;;;;;;;;;;18.50;91.70;;;;;;5051588;28;20261;-80
2023/06/30 01:39:54;;;;;;;;;;;18.60;91.70;;;;;;5069213;28;19948;-83
2023/06/30 01:42:20;;;;;;;;;;;18.60;91.90;;;;;;5069631;28;19912;-83
2023/06/30 01:44:46;;;;;;;;;;;18.50;92.10;;;;;;5069650;28;19923;-82
2023/06/30 01:47:12;;;;;;;;;;;18.50;92.30;;;;;;5069979;28;20303;-79
2023/06/30 01:49:37;;;;;;;;;;;18.40;92.20;;;;;;5069576;28;20264;-83
2023/06/30 01:52:03;;;;;;;;;;;18.50;92.40;;;;;;5069711;28;20011;-82
2023/06/30 01:54:29;;;;;;;;;;;18.40;92.70;;;;;;5069280;28;19979;-83
2023/06/30 01:56:55;;;;;;;;;;;18.40;92.60;;;;;;5069167;28;19963;-82
2023/06/30 01:59:20;;;;;;;;;;;18.60;92.30;;;;;;5068896;28;19912;-82
2023/06/30 02:01:46;;;;;;;;;;;18.50;92.50;;;;;;5069108;28;19938;-82
2023/06/30 02:04:12;;;;;;;;;;;18.50;92.50;;;;;;5068789;28;19922;-80
2023/06/30 02:06:37;;;;;;;;;;;18.40;92.80;;;;;;5068092;28;19931;-82
2023/06/30 02:09:03;;;;;;;;;;;18.40;93.00;;;;;;5067567;28;19922;-83
2023/06/30 02:11:28;;;;;;;;;;;18.40;92.90;;;;;;5050149;28;19967;-82
2023/06/30 02:13:54;;;;;;;;;;;18.30;93.10;;;;;;5068401;28;19920;-82
2023/06/30 02:16:20;;;;;;;;;;;18.30;93.40;;;;;;5068102;28;20035;-82
2023/06/30 02:18:45;;;;;;;;;;;18.40;93.30;;;;;;5067767;28;19917;-82
2023/06/30 02:21:11;;;;;;;;;;;18.30;93.50;;;;;;5049737;28;19920;-82
2023/06/30 02:23:36;;;;;;;;;;;18.40;93.30;;;;;;5067377;28;19963;-81
2023/06/30 02:26:02;;;;;;;;;;;18.40;93.40;;;;;;5067457;28;19928;-82
2023/06/30 02:28:27;;;;;;;;;;;18.40;93.50;;;;;;5067306;28;19928;-82
2023/06/30 02:30:54;;;;;;;;;;;18.40;93.60;;;;;;5067434;28;19916;-82
2023/06/30 02:33:19;;;;;;;;;;;18.50;93.40;;;;;;5049874;28;19952;-82
2023/06/30 02:35:45;;;;;;;;;;;18.50;93.40;;;;;;5067930;28;19968;-82
2023/06/30 02:38:11;;;;;;;;;;;18.40;93.70;;;;;;5068258;28;19961;-80
2023/06/30 02:40:36;;;;;;;;;;;18.30;93.80;;;;;;5067801;28;19934;-84
2023/06/30 02:43:02;;;;;;;;;;;18.30;94.00;;;;;;5067761;28;19986;-80
2023/06/30 02:45:28;;;;;;;;;;;18.50;93.60;;;;;;5067215;28;19964;-83
2023/06/30 02:47:54;;;;;;;;;;;18.40;93.80;;;;;;5066255;28;20001;-82
2023/06/30 02:50:27;;;;;;;;;;;18.40;93.80;;;;;;5068509;28;20326;-83
2023/06/30 02:52:53;;;;;;;;;;;18.30;94.00;;;;;;5067735;28;20023;-84
2023/06/30 02:55:18;;;;;;;;;;;18.40;94.00;;;;;;5067635;28;20054;-82
2023/06/30 02:57:44;;;;;;;;;;;18.40;94.10;;;;;;5068085;28;20045;-81
2023/06/30 03:00:10;;;;;;;;;;;18.50;93.90;;;;;;5050108;28;19921;-81
2023/06/30 03:02:36;;;;;;;;;;;18.40;93.80;;;;;;5068050;28;19913;-81
2023/06/30 03:05:01;;;;;;;;;;;18.30;94.20;;;;;;5068329;28;19912;-82
2023/06/30 03:07:27;;;;;;;;;;;18.30;94.30;;;;;;5068152;28;19995;-82
2023/06/30 03:09:52;;;;;;;;;;;18.30;94.50;;;;;;5067678;28;19913;-82
2023/06/30 03:12:18;;;;;;;;;;;18.40;94.30;;;;;;5067798;28;20038;-83
2023/06/30 03:14:44;;;;;;;;;;;18.40;94.30;;;;;;5068266;28;19909;-79
2023/06/30 03:17:09;;;;;;;;;;;18.50;94.10;;;;;;5068364;28;19966;-82
2023/06/30 03:19:35;;;;;;;;;;;18.60;93.80;;;;;;5068361;28;19913;-81
2023/06/30 03:22:00;;;;;;;;;;;18.60;93.80;;;;;;5068133;28;19912;-82
2023/06/30 03:24:26;;;;;;;;;;;18.60;93.80;;;;;;5067485;28;20560;-82
2023/06/30 03:26:52;;;;;;;;;;;18.50;93.90;;;;;;5067565;28;19924;-81
2023/06/30 03:29:17;;;;;;;;;;;18.40;94.20;;;;;;5049878;28;20283;-84
2023/06/30 03:31:43;;;;;;;;;;;18.30;94.30;;;;;;5067494;28;20023;-85
2023/06/30 03:34:08;;;;;;;;;;;18.30;94.20;;;;;;5067623;28;20002;-83
2023/06/30 03:36:34;;;;;;;;;;;18.20;94.60;;;;;;5067441;28;19978;-83
2023/06/30 03:39:00;;;;;;;;;;;18.30;94.80;;;;;;5067141;28;19912;-82
2023/06/30 03:41:26;;;;;;;;;;;18.20;94.60;;;;;;5067272;28;19919;-81
2023/06/30 03:43:52;;;;;;;;;;;18.30;94.50;;;;;;5067320;28;19912;-82
2023/06/30 03:46:17;;;;;;;;;;;18.30;94.40;;;;;;5067627;28;20668;-83
2023/06/30 03:48:43;;;;;;;;;;;18.30;94.40;;;;;;5066937;28;19916;-82
2023/06/30 03:51:09;;;;;;;;;;;18.30;94.40;;;;;;5067053;28;19990;-82
2023/06/30 03:53:34;;;;;;;;;;;18.10;94.80;;;;;;5067029;28;19931;-82
2023/06/30 03:56:00;;;;;;;;;;;18.00;95.10;;;;;;5067191;28;19908;-83
2023/06/30 03:58:27;;;;;;;;;;;17.90;95.40;;;;;;5067240;28;20492;-80
2023/06/30 04:00:53;;;;;;;;;;;17.80;95.50;;;;;;5065733;28;19919;-80
2023/06/30 04:03:18;;;;;;;;;;;17.70;95.90;;;;;;5066002;28;20358;-81
2023/06/30 04:05:44;;;;;;;;;;;17.60;96.20;;;;;;5066560;28;19920;-82
2023/06/30 04:08:09;;;;;;;;;;;17.60;96.50;;;;;;5066481;28;20279;-84
2023/06/30 04:10:35;;;;;;;;;;;17.50;96.60;;;;;;5066861;28;19912;-82
2023/06/30 04:13:04;;;;;;;;;;;17.40;97.60;;;;;;5067053;28;19918;-81
2023/06/30 04:15:30;;;;;;;;;;;17.40;97.70;;;;;;5067086;28;19912;-81
2023/06/30 04:17:55;;;;;;;;;;;17.50;97.20;;;;;;5066794;28;19919;-81
2023/06/30 04:20:21;;;;;;;;;;;17.40;97.50;;;;;;5067054;28;19913;-82
2023/06/30 04:22:47;;;;;;;;;;;17.30;98.10;;;;;;5066631;28;19960;-80
2023/06/30 04:25:12;;;;;;;;;;;17.20;98.50;;;;;;5066681;28;19963;-82
2023/06/30 04:27:38;;;;;;;;;;;17.20;98.60;;;;;;5066962;28;19924;-81
2023/06/30 04:30:05;;;;;;;;;;;17.50;98.00;;;;;;5067025;28;19917;-82
2023/06/30 04:32:30;;;;;;;;;;;17.30;98.00;;;;;;5066769;28;20015;-82
2023/06/30 04:34:58;;;;;;;;;;;17.30;98.10;;;;;;5066783;28;20078;-82
2023/06/30 04:37:23;;;;;;;;;;;17.40;97.90;;;;;;5066483;28;19919;-80
2023/06/30 04:39:50;;;;;;;;;;;17.30;98.30;;;;;;5066815;28;19924;-82
2023/06/30 04:42:15;;;;;;;;;;;17.30;98.70;;;;;;5066645;28;19912;-83
2023/06/30 04:44:41;;;;;;;;;;;17.30;99.20;;;;;;5066842;28;20831;-81
2023/06/30 04:47:07;;;;;;;;;;;17.40;99.30;;;;;;5049017;28;19916;-81
2023/06/30 04:49:33;;;;;;;;;;;17.50;98.90;;;;;;5067203;28;19915;-81
2023/06/30 04:51:58;;;;;;;;;;;17.60;98.50;;;;;;5067131;28;20429;-82
2023/06/30 04:54:24;;;;;;;;;;;17.40;98.90;;;;;;5066945;28;19916;-81
2023/06/30 04:56:49;;;;;;;;;;;17.50;98.90;;;;;;5066943;28;20000;-81
2023/06/30 04:59:15;;;;;;;;;;;17.70;98.50;;;;;;5066769;28;20007;-82
2023/06/30 05:01:40;;;;;;;;;;;17.60;98.40;;;;;;5066533;28;20004;-84
2023/06/30 05:04:06;;;;;;;;;;;17.70;98.50;;;;;;5048447;28;19948;-81
2023/06/30 05:06:31;;;;;;;;;;;17.60;98.60;;;;;;5066598;28;19912;-81
2023/06/30 05:08:57;;;;;;;;;;;17.50;98.60;;;;;;5065968;28;19912;-83
2023/06/30 05:11:23;;;;;;;;;;;17.60;98.40;;;;;;5067124;28;19924;-79
2023/06/30 05:13:48;;;;;;;;;;;17.70;98.10;;;;;;5069786;28;20015;-83
2023/06/30 05:16:14;;;;;;;;;;;17.60;98.20;;;;;;5069797;28;19913;-81
2023/06/30 05:18:39;;;;;;;;;;;17.70;97.90;;;;;;5069634;28;19935;-81
2023/06/30 05:21:06;;;;;;;;;;;17.60;98.00;;;;;;5051733;28;20434;-82
2023/06/30 05:23:32;;;;;;;;;;;17.70;97.90;;;;;;5070150;28;20340;-81
2023/06/30 05:25:58;;;;;;;;;;;17.80;97.70;;;;;;5069583;28;19974;-84
2023/06/30 05:28:24;;;;;;;;;;;17.90;97.40;;;;;;5051743;28;19983;-83
2023/06/30 05:30:49;;;;;;;;;;;18.10;96.90;;;;;;5068659;28;20367;-80
2023/06/30 05:33:15;;;;;;;;;;;18.10;96.50;;;;;;5063575;28;20023;-81
2023/06/30 05:35:41;;;;;;;;;;;18.00;96.40;;;;;;5059972;28;19917;-82
2023/06/30 05:38:06;;;;;;;;;;;18.10;96.80;;;;;;5062190;28;19920;-81
2023/06/30 05:40:32;;;;;;;;;;;17.90;97.00;;;;;;5060838;28;20326;-83
2023/06/30 05:42:57;;;;;;;;;;;17.70;97.30;;;;;;5065469;28;19916;-83
2023/06/30 05:45:23;;;;;;;;;;;17.90;97.30;;;;;;5054528;28;19974;-84
2023/06/30 05:47:48;;;;;;;;;;;17.90;97.10;;;;;;5058955;28;19920;-83
2023/06/30 05:50:14;;;;;;;;;;;17.90;97.20;;;;;;5059881;28;19920;-83
2023/06/30 05:52:40;;;;;;;;;;;17.90;97.30;;;;;;5064647;28;19927;-82
2023/06/30 05:55:06;;;;;;;;;;;17.60;97.50;;;;;;5060511;28;20771;-83
2023/06/30 05:57:31;;;;;;;;;;;17.90;97.30;;;;;;5063253;28;19924;-81
2023/06/30 05:59:57;;;;;;;;;;;17.90;96.90;;;;;;5043748;28;19917;-81
2023/06/30 06:02:22;;;;;;;;;;;18.00;96.90;;;;;;5060516;28;20003;-83
2023/06/30 06:04:51;;;;;;;;;;;18.10;96.40;;;;;;5054949;28;19952;-83
2023/06/30 06:07:17;;;;;;;;;;;18.10;96.50;;;;;;5054073;28;19925;-84
2023/06/30 06:09:42;;;;;;;;;;;17.90;96.50;;;;;;5060288;28;19917;-82
2023/06/30 06:12:08;;;;;;;;;;;17.70;97.10;;;;;;5060993;28;20404;-83
2023/06/30 06:14:33;;;;;;;;;;;17.90;96.80;;;;;;5059858;28;19920;-83
2023/06/30 06:16:59;;;;;;;;;;;17.80;96.80;;;;;;5063338;28;19917;-83
2023/06/30 06:19:25;;;;;;;;;;;17.90;96.80;;;;;;5064087;28;19916;-83
2023/06/30 06:21:50;;;;;;;;;;;17.90;96.80;;;;;;5061826;28;20013;-85
2023/06/30 06:24:16;;;;;;;;;;;18.00;96.60;;;;;;5062911;28;19975;-83
2023/06/30 06:26:42;;;;;;;;;;;18.00;96.10;;;;;;5060278;28;19982;-83
2023/06/30 06:29:07;;;;;;;;;;;18.00;96.50;;;;;;5060449;28;19967;-83
2023/06/30 06:31:33;;;;;;;;;;;18.10;96.60;;;;;;5057112;28;19975;-83
2023/06/30 06:33:59;;;;;;;;;;;18.20;96.40;;;;;;5047300;28;19928;-82
2023/06/30 06:36:24;;;;;;;;;;;18.20;95.50;;;;;;5063113;28;19916;-83
2023/06/30 06:38:50;;;;;;;;;;;18.20;96.00;;;;;;5056473;28;19951;-81
2023/06/30 06:41:15;;;;;;;;;;;18.20;95.80;;;;;;5062101;28;19920;-83
2023/06/30 06:43:42;;;;;;;;;;;18.20;96.10;;;;;;5066583;28;19947;-84
2023/06/30 06:46:08;;;;;;;;;;;18.30;95.60;;;;;;5058633;28;20054;-81
2023/06/30 06:48:33;;;;;;;;;;;18.30;95.50;;;;;;5057340;28;19920;-81
2023/06/30 06:51:00;;;;;;;;;;;18.60;95.00;;;;;;5056344;28;19928;-77
2023/06/30 06:53:27;;;;;;;;;;;18.90;94.40;;;;;;5058371;28;19964;-78
2023/06/30 06:55:53;;;;;;;;;;;18.50;94.60;;;;;;5060832;28;19920;-76
2023/06/30 06:58:19;;;;;;;;;;;18.60;94.70;;;;;;5058543;28;19985;-76
2023/06/30 07:00:49;;;;;;;;;;;18.80;94.30;;;;;;5060739;28;20379;-81
2023/06/30 07:03:15;;;;;;;;;;;18.80;94.00;;;;;;5056069;28;19917;-82
2023/06/30 07:05:41;;;;;;;;;;;18.90;94.00;;;;;;5063164;28;19916;-80
2023/06/30 07:08:06;;;;;;;;;;;19.10;93.70;;;;;;5056795;28;19966;-80
2023/06/30 07:10:32;;;;;;;;;;;19.00;93.60;;;;;;5062790;28;19920;-81
2023/06/30 07:12:58;;;;;;;;;;;18.80;93.90;;;;;;5048067;28;19916;-80
2023/06/30 07:15:24;;;;;;;;;;;19.20;93.60;;;;;;5054657;28;19952;-79
2023/06/30 07:17:49;;;;;;;;;;;19.60;92.90;;;;;;5062433;28;19974;-77
2023/06/30 07:20:15;;;;;;;;;;;19.70;92.30;;;;;;5066318;28;19959;-78
2023/06/30 07:22:40;;;;;;;;;;;19.50;92.70;;;;;;5061714;28;19916;-78
2023/06/30 07:25:07;;;;;;;;;;;19.30;92.70;;;;;;5062615;28;19921;-76
2023/06/30 07:27:32;;;;;;;;;;;19.60;92.80;;;;;;5062260;28;19928;-78
2023/06/30 07:29:58;;;;;;;;;;;20.20;91.60;;;;;;5062139;28;19921;-77
2023/06/30 07:32:24;;;;;;;;;;;20.20;91.30;;;;;;5043481;28;20054;-78
2023/06/30 07:34:49;;;;;;;;;;;20.60;90.50;;;;;;5050682;28;20163;-77
2023/06/30 07:37:15;;;;;;;;;;;21.10;89.70;;;;;;5062647;28;19912;-78
2023/06/30 07:39:40;;;;;;;;;;;20.90;89.60;;;;;;5056632;28;19912;-78
2023/06/30 07:42:06;;;;;;;;;;;20.60;90.40;;;;;;5046119;28;20016;-76
2023/06/30 07:44:31;;;;;;;;;;;20.20;91.00;;;;;;5051546;28;19965;-78
2023/06/30 07:46:58;;;;;;;;;;;19.70;91.80;;;;;;5051618;28;20376;-77
2023/06/30 07:49:24;;;;;;;;;;;19.60;92.10;;;;;;5050986;28;19935;-77
2023/06/30 07:51:50;;;;;;;;;;;19.70;91.80;;;;;;5029688;28;19924;-76
2023/06/30 07:54:16;;;;;;;;;;;19.60;91.70;;;;;;5057442;28;19917;-77
2023/06/30 07:56:41;;;;;;;;;;;19.50;91.90;;;;;;5049672;28;19967;-77
2023/06/30 07:59:07;;;;;;;;;;;19.30;92.30;;;;;;5062540;28;19924;-78
2023/06/30 08:01:33;;;;;;;;;;;19.10;92.40;;;;;;5050211;28;20086;-77
2023/06/30 08:03:58;;;;;;;;;;;19.10;92.50;;;;;;5063284;28;19920;-77
2023/06/30 08:06:25;;;;;;;;;;;19.40;92.00;;;;;;5061488;28;19921;-77
2023/06/30 08:08:50;;;;;;;;;;;19.90;91.10;;;;;;5035424;28;19913;-77
2023/06/30 08:11:16;;;;;;;;;;;20.40;89.90;;;;;;5061861;28;19920;-76
2023/06/30 08:13:41;;;;;;;;;;;20.90;86.90;;;;;;5051331;28;19916;-77
2023/06/30 08:16:07;;;;;;;;;;;21.80;85.80;;;;;;5052665;28;19921;-78
2023/06/30 08:18:32;;;;;;;;;;;21.90;85.30;;;;;;5060525;28;19959;-78
2023/06/30 08:20:58;;;;;;;;;;;22.00;84.30;;;;;;5044211;28;19999;-77
2023/06/30 08:23:24;;;;;;;;;;;22.20;84.50;;;;;;5052453;28;19939;-77
2023/06/30 08:25:53;;;;;;;;;;;22.70;82.40;;;;;;5052325;28;19978;-78
2023/06/30 08:28:19;;;;;;;;;;;22.50;81.90;;;;;;5047980;28;19939;-78
2023/06/30 08:30:44;;;;;;;;;;;21.60;83.90;;;;;;5058004;28;20356;-78
2023/06/30 08:33:10;;;;;;;;;;;21.00;84.90;;;;;;5048865;28;19917;-76
2023/06/30 08:35:35;;;;;;;;;;;20.80;87.50;;;;;;5058359;28;20391;-78
2023/06/30 08:38:01;;;;;;;;;;;20.50;86.40;;;;;;5050479;28;19987;-76
2023/06/30 08:40:29;;;;;;;;;;;21.10;86.30;;;;;;5053311;28;19917;-77
2023/06/30 08:43:10;;;;;;;;;;;21.30;85.90;;;;;;5050063;28;20531;-77
2023/06/30 08:45:38;;;;;;;;;;;21.00;86.60;;;;;;5055090;28;20013;-77
2023/06/30 08:48:04;;;;;;;;;;;21.30;86.90;;;;;;5058274;28;19912;-77
2023/06/30 08:50:31;;;;;;;;;;;21.50;86.00;;;;;;5065844;28;20070;-76
2023/06/30 08:52:58;;;;;;;;;;;21.40;85.40;;;;;;5055589;28;20031;-78
2023/06/30 08:55:23;;;;;;;;;;;21.00;86.10;;;;;;5059573;28;19912;-77
2023/06/30 08:57:49;;;;;;;;;;;21.00;86.90;;;;;;5063174;28;19924;-78
2023/06/30 09:00:15;;;;;;;;;;;21.30;86.60;;;;;;5046930;28;20685;-77
2023/06/30 09:02:41;;;;;;;;;;;21.40;87.10;;;;;;5065731;28;20423;-78
2023/06/30 09:05:07;;;;;;;;;;;22.20;84.60;;;;;;5065891;28;19917;-77
2023/06/30 09:07:37;;;;;;;;;;;22.60;83.70;;;;;;5056760;28;19919;-78
2023/06/30 09:10:03;;;;;;;;;;;23.70;80.40;;;;;;5060556;28;20346;-78
2023/06/30 09:12:29;;;;;;;;;;;27.40;69.50;;;;;;5054445;28;20019;-78
2023/06/30 09:14:58;;;;;;;;;;;25.70;68.00;;;;;;5050384;28;20019;-78
2023/06/30 09:17:24;;;;;;;;;;;24.70;72.10;;;;;;5058785;28;20006;-76
2023/06/30 09:19:50;;;;;;;;;;;27.30;68.60;;;;;;5065454;28;20042;-77
2023/06/30 09:22:15;;;;;;;;;;;25.70;70.40;;;;;;5077107;28;20403;-78
2023/06/30 09:24:41;;;;;;;;;;;25.60;71.20;;;;;;5047556;28;20038;-76
2023/06/30 09:27:07;;;;;;;;;;;27.20;68.50;;;;;;5056471;28;20394;-77
2023/06/30 09:29:35;;;;;;;;;;;26.40;67.10;;;;;;5054065;28;19916;-77
2023/06/30 09:32:02;;;;;;;;;;;26.90;65.50;;;;;;5059224;28;19917;-77
2023/06/30 09:34:28;;;;;;;;;;;25.10;66.90;;;;;;5064049;28;19975;-78
2023/06/30 09:36:54;;;;;;;;;;;23.80;71.60;;;;;;5051773;28;20372;-79
2023/06/30 09:39:20;;;;;;;;;;;23.40;73.90;;;;;;5065933;28;20031;-77
2023/06/30 09:41:47;;;;;;;;;;;22.30;77.60;;;;;;5066060;28;20424;-77
2023/06/30 09:44:13;;;;;;;;;;;21.80;78.70;;;;;;5059121;28;19954;-78
2023/06/30 09:46:52;;;;;;;;;;;21.70;80.10;;;;;;5065179;28;19974;-78
2023/06/30 09:49:30;;;;;;;;;;;22.80;78.10;;;;;;5061831;28;19913;-78
2023/06/30 09:51:56;;;;;;;;;;;22.90;78.10;;;;;;5062692;28;19929;-77
2023/06/30 09:54:22;;;;;;;;;;;23.50;76.10;;;;;;5064545;28;19917;-78
2023/06/30 09:56:55;;;;;;;;;;;22.80;76.90;;;;;;5061810;28;19912;-78
2023/06/30 09:59:22;;;;;;;;;;;24.20;73.90;;;;;;5059163;28;19959;-76
2023/06/30 10:01:51;;;;;;;;;;;24.20;75.50;;;;;;5049684;28;19912;-77
2023/06/30 10:04:16;;;;;;;;;;;25.60;70.10;;;;;;5054677;28;20089;-78
2023/06/30 10:06:42;;;;;;;;;;;25.50;66.10;;;;;;5060120;28;19913;-76
2023/06/30 10:09:08;;;;;;;;;;;25.20;67.20;;;;;;5046141;28;19912;-78
2023/06/30 10:11:35;;;;;;;;;;;24.20;68.40;;;;;;5050788;28;19931;-78
2023/06/30 10:14:01;;;;;;;;;;;23.40;70.50;;;;;;5059185;28;19964;-78
2023/06/30 10:16:27;;;;;;;;;;;22.90;70.70;;;;;;5051409;28;20019;-78
2023/06/30 10:18:54;;;;;;;;;;;22.70;71.30;;;;;;5056013;28;19912;-78
2023/06/30 10:21:19;;;;;;;;;;;22.70;71.20;;;;;;5063864;28;19912;-78
2023/06/30 10:23:46;;;;;;;;;;;23.00;70.60;;;;;;5064789;28;19913;-78
2023/06/30 10:26:13;;;;;;;;;;;26.00;64.70;;;;;;5064070;28;20023;-78
2023/06/30 10:28:39;;;;;;;;;;;28.50;61.50;;;;;;5064127;28;20350;-77
2023/06/30 10:31:05;;;;;;;;;;;28.50;61.00;;;;;;5064553;28;19927;-78
2023/06/30 10:33:31;;;;;;;;;;;28.50;56.30;;;;;;5037887;28;19916;-78
2023/06/30 10:35:58;;;;;;;;;;;28.00;56.30;;;;;;5054832;28;20450;-78
2023/06/30 10:38:24;;;;;;;;;;;27.50;57.70;;;;;;5051708;28;19916;-78
2023/06/30 10:40:50;;;;;;;;;;;28.50;58.80;;;;;;5056267;28;19973;-77
2023/06/30 10:43:17;;;;;;;;;;;28.00;54.00;;;;;;5057382;28;19912;-77
2023/06/30 10:46:01;;;;;;;;;;;26.60;58.30;;;;;;5057028;28;20496;-77
2023/06/30 10:48:27;;;;;;;;;;;25.50;58.70;;;;;;5059148;28;19913;-78
2023/06/30 10:50:52;;;;;;;;;;;24.50;59.40;;;;;;5058391;28;19943;-77
2023/06/30 10:53:18;;;;;;;;;;;24.00;61.30;;;;;;5059215;28;19963;-77
2023/06/30 10:55:44;;;;;;;;;;;23.10;62.60;;;;;;5068790;28;19912;-78
2023/06/30 10:58:10;;;;;;;;;;;22.90;63.10;;;;;;5055874;28;19991;-78
2023/06/30 11:00:36;;;;;;;;;;;23.20;60.60;;;;;;5056848;28;20706;-77
2023/06/30 11:03:03;;;;;;;;;;;23.40;58.10;;;;;;5045557;28;20108;-78
2023/06/30 11:05:30;;;;;;;;;;;23.90;57.90;;;;;;5051434;28;20017;-78
2023/06/30 11:08:02;;;;;;;;;;;24.20;57.70;;;;;;5051593;28;20497;-78
2023/06/30 11:10:33;;;;;;;;;;;24.40;59.70;;;;;;5045300;28;19921;-78
2023/06/30 11:13:00;;;;;;;;;;;24.90;62.30;;;;;;5055157;28;19947;-78
2023/06/30 11:15:26;;;;;;;;;;;25.50;60.70;;;;;;5045948;28;19920;-77
2023/06/30 11:17:52;;;;;;;;;;;25.40;60.40;;;;;;5060621;28;20387;-77
2023/06/30 11:20:18;;;;;;;;;;;25.50;61.70;;;;;;5062993;28;19958;-79
2023/06/30 11:22:57;;;;;;;;;;;25.50;61.80;;;;;;5053563;28;19940;-77
2023/06/30 11:25:23;;;;;;;;;;;24.90;58.90;;;;;;5047480;28;19917;-79
2023/06/30 11:27:49;;;;;;;;;;;24.10;59.80;;;;;;5061321;28;19916;-78
2023/06/30 11:30:18;;;;;;;;;;;24.70;58.90;;;;;;5062897;28;19917;-77
2023/06/30 11:32:44;;;;;;;;;;;25.10;60.20;;;;;;5054771;28;19916;-78
2023/06/30 11:35:11;;;;;;;;;;;25.60;59.30;;;;;;5063122;28;20019;-77
2023/06/30 11:37:37;;;;;;;;;;;26.00;62.40;;;;;;5062504;28;19939;-77
2023/06/30 11:40:04;;;;;;;;;;;25.90;60.30;;;;;;5056831;28;20368;-78
2023/06/30 11:42:29;;;;;;;;;;;25.70;60.50;;;;;;5056593;28;19920;-77
2023/06/30 11:44:55;;;;;;;;;;;25.60;60.30;;;;;;5062936;28;19916;-78
2023/06/30 11:47:21;;;;;;;;;;;25.30;61.00;;;;;;5062556;28;19989;-78
2023/06/30 11:49:47;;;;;;;;;;;24.90;62.80;;;;;;5062395;28;19966;-78
2023/06/30 11:52:13;;;;;;;;;;;25.70;61.10;;;;;;5061678;28;19927;-77
2023/06/30 11:54:39;;;;;;;;;;;24.90;60.70;;;;;;5062699;28;19912;-79
2023/06/30 11:57:05;;;;;;;;;;;24.40;60.60;;;;;;5062597;28;19986;-78
2023/06/30 11:59:31;;;;;;;;;;;23.80;61.60;;;;;;5058735;28;20596;-78
2023/06/30 12:01:57;;;;;;;;;;;22.90;64.40;;;;;;5044774;28;19923;-77
2023/06/30 12:04:22;;;;;;;;;;;22.90;66.40;;;;;;5055303;28;19909;-78
2023/06/30 12:06:48;;;;;;;;;;;23.20;65.80;;;;;;5075485;28;19912;-78
2023/06/30 12:09:14;;;;;;;;;;;23.30;65.90;;;;;;5044036;28;19919;-78
2023/06/30 12:11:46;;;;;;;;;;;23.80;65.20;;;;;;5049944;28;19955;-77
2023/06/30 12:14:15;;;;;;;;;;;24.30;64.80;;;;;;5057471;28;19916;-78
2023/06/30 12:16:41;;;;;;;;;;;24.30;64.20;;;;;;5062949;28;19966;-77
2023/06/30 12:19:08;;;;;;;;;;;24.60;62.90;;;;;;5059841;28;19916;-78
2023/06/30 12:21:34;;;;;;;;;;;24.30;62.80;;;;;;5064310;28;19912;-77
2023/06/30 12:23:59;;;;;;;;;;;24.60;62.80;;;;;;5067036;28;19913;-78
2023/06/30 12:26:25;;;;;;;;;;;24.80;63.90;;;;;;5048102;28;19986;-78
2023/06/30 12:28:51;;;;;;;;;;;24.70;62.50;;;;;;5066554;28;19931;-78
2023/06/30 12:31:17;;;;;;;;;;;24.50;57.90;;;;;;5066055;28;19928;-78
2023/06/30 12:33:53;;;;;;;;;;;24.40;57.80;;;;;;5058756;28;19955;-79
2023/06/30 12:36:22;;;;;;;;;;;24.50;57.90;;;;;;5066262;28;19970;-78
2023/06/30 12:38:47;;;;;;;;;;;24.30;55.50;;;;;;5066605;28;19920;-78
2023/06/30 12:41:13;;;;;;;;;;;24.40;53.90;;;;;;5073277;28;19919;-78
2023/06/30 12:43:39;;;;;;;;;;;24.40;54.40;;;;;;5060068;28;19920;-78
2023/06/30 12:46:04;;;;;;;;;;;24.70;56.20;;;;;;5060568;28;19938;-78
2023/06/30 12:48:31;;;;;;;;;;;24.90;54.80;;;;;;5066369;28;20003;-75
2023/06/30 12:50:57;;;;;;;;;;;24.30;53.50;;;;;;5060823;28;20375;-78
2023/06/30 12:53:23;;;;;;;;;;;24.10;54.40;;;;;;5066075;28;20007;-78
2023/06/30 12:55:49;;;;;;;;;;;24.00;55.70;;;;;;5070497;28;20002;-78
2023/06/30 12:58:16;;;;;;;;;;;23.90;58.20;;;;;;5063045;28;19939;-79
2023/06/30 13:00:41;;;;;;;;;;;24.10;59.50;;;;;;5066177;28;19919;-78
2023/06/30 13:03:10;;;;;;;;;;;24.30;61.60;;;;;;5079393;28;19916;-78
2023/06/30 13:05:35;;;;;;;;;;;24.10;60.70;;;;;;5054066;28;19936;-77
2023/06/30 13:08:01;;;;;;;;;;;24.30;61.20;;;;;;5070866;28;20577;-78
2023/06/30 13:10:26;;;;;;;;;;;24.10;61.40;;;;;;5069711;28;20080;-78
2023/06/30 13:12:52;;;;;;;;;;;24.10;62.70;;;;;;5051999;28;19923;-77
2023/06/30 13:15:18;;;;;;;;;;;23.80;61.40;;;;;;5059296;28;19948;-79
2023/06/30 13:17:43;;;;;;;;;;;23.70;59.50;;;;;;5061252;28;20430;-79
2023/06/30 13:20:09;;;;;;;;;;;23.70;61.40;;;;;;5059227;28;19913;-79
2023/06/30 13:22:35;;;;;;;;;;;23.70;61.30;;;;;;5062408;28;19912;-78
2023/06/30 13:25:01;;;;;;;;;;;23.50;59.90;;;;;;5065356;28;19940;-77
2023/06/30 13:27:27;;;;;;;;;;;23.30;55.70;;;;;;5055897;28;20019;-79
2023/06/30 13:29:53;;;;;;;;;;;23.60;59.60;;;;;;5051207;28;19952;-79
2023/06/30 13:32:18;;;;;;;;;;;23.80;59.00;;;;;;5060750;28;19921;-79
2023/06/30 13:34:45;;;;;;;;;;;23.60;59.10;;;;;;5061173;28;19912;-78
2023/06/30 13:37:10;;;;;;;;;;;23.10;58.90;;;;;;5053214;28;19912;-78
2023/06/30 13:39:36;;;;;;;;;;;23.20;61.80;;;;;;5053127;28;20279;-78
2023/06/30 13:42:02;;;;;;;;;;;23.60;63.70;;;;;;5054059;28;19991;-79
2023/06/30 13:44:29;;;;;;;;;;;23.80;61.80;;;;;;5058730;28;20489;-79
2023/06/30 13:46:54;;;;;;;;;;;23.50;58.90;;;;;;5059446;28;19922;-76
2023/06/30 13:49:20;;;;;;;;;;;23.50;60.20;;;;;;5065593;28;19916;-77
2023/06/30 13:51:46;;;;;;;;;;;23.20;60.10;;;;;;5065452;28;20058;-79
2023/06/30 13:54:11;;;;;;;;;;;23.20;60.30;;;;;;5063830;28;20009;-79
2023/06/30 13:56:37;;;;;;;;;;;23.50;60.00;;;;;;5061379;28;19981;-78
2023/06/30 13:59:02;;;;;;;;;;;23.50;59.60;;;;;;5060855;28;19909;-78
2023/06/30 14:01:28;;;;;;;;;;;23.60;60.00;;;;;;5066104;28;19912;-78
2023/06/30 14:03:53;;;;;;;;;;;23.60;60.10;;;;;;5070447;28;19938;-79
2023/06/30 14:06:19;;;;;;;;;;;23.70;59.50;;;;;;5059901;28;19912;-79
2023/06/30 14:08:47;;;;;;;;;;;23.60;59.30;;;;;;5047484;28;19922;-78
2023/06/30 14:11:14;;;;;;;;;;;23.80;58.60;;;;;;5048367;28;20403;-79